Time;durP1;ratioP1;P1;durP2;ratioP2;P2;SDS_P1;SDS_P2;PMS_P1;PMS_P2;Temp;Humidity;BMP_temperature;BMP_pressure;BME280_temperature;BME280_humidity;BME280_pressure;Samples;Min_cycle;Max_cycle;Signal;HPM_P1;HPM_P2
2023/08/18 00:02:22;;;;;;;2.13;1.48;;;17.20;99.90;;;;;;5053244;28;20570;-72
2023/08/18 00:04:48;;;;;;;4.22;1.25;;;17.40;99.90;;;;;;5069850;28;20120;-72
2023/08/18 00:07:15;;;;;;;1.98;1.60;;;17.20;99.90;;;;;;5050429;28;20140;-72
2023/08/18 00:09:41;;;;;;;3.25;2.45;;;17.50;99.90;;;;;;5057839;28;20047;-72
2023/08/18 00:12:06;;;;;;;5.03;1.60;;;17.40;99.90;;;;;;5040765;28;20124;-72
2023/08/18 00:14:33;;;;;;;4.05;1.77;;;17.30;99.90;;;;;;5050348;28;20041;-72
2023/08/18 00:16:59;;;;;;;3.45;1.77;;;17.50;99.90;;;;;;5055433;28;20036;-72
2023/08/18 00:19:24;;;;;;;1.80;1.30;;;17.30;99.90;;;;;;5057380;28;20049;-72
2023/08/18 00:21:50;;;;;;;4.35;1.30;;;17.20;99.90;;;;;;5048692;28;20036;-72
2023/08/18 00:24:16;;;;;;;4.45;1.45;;;17.30;99.90;;;;;;5058155;28;20044;-72
2023/08/18 00:26:41;;;;;;;2.30;1.52;;;17.30;99.90;;;;;;5052573;28;20040;-72
2023/08/18 00:29:07;;;;;;;1.85;1.23;;;17.30;99.90;;;;;;5045809;28;20088;-72
2023/08/18 00:31:32;;;;;;;3.72;1.55;;;17.20;99.90;;;;;;5052974;28;20427;-72
2023/08/18 00:33:58;;;;;;;4.13;1.40;;;17.40;99.90;;;;;;5058486;28;20172;-72
2023/08/18 00:36:25;;;;;;;3.35;1.50;;;17.30;99.90;;;;;;5060996;28;20040;-72
2023/08/18 00:38:51;;;;;;;2.38;1.20;;;17.40;99.90;;;;;;5058352;28;20511;-72
2023/08/18 00:41:16;;;;;;;1.92;1.42;;;17.40;99.90;;;;;;5050254;28;20170;-72
2023/08/18 00:43:42;;;;;;;1.95;1.40;;;17.30;99.90;;;;;;5054393;28;20033;-72
2023/08/18 00:46:09;;;;;;;1.95;1.40;;;17.30;99.90;;;;;;5042678;28;20064;-72
2023/08/18 00:48:37;;;;;;;2.53;1.42;;;17.40;99.90;;;;;;5070807;28;20488;-73
2023/08/18 00:51:02;;;;;;;2.50;1.50;;;17.20;99.90;;;;;;5053121;28;20061;-72
2023/08/18 00:53:30;;;;;;;2.55;1.60;;;17.30;99.90;;;;;;5053143;28;20145;-72
2023/08/18 00:55:56;;;;;;;3.25;1.52;;;17.10;99.90;;;;;;5069322;28;20420;-72
2023/08/18 00:58:22;;;;;;;4.45;1.60;;;17.20;99.90;;;;;;5072118;28;20044;-72
2023/08/18 01:00:49;;;;;;;1.90;1.50;;;17.20;99.90;;;;;;5051630;28;20041;-72
2023/08/18 01:03:15;;;;;;;2.92;1.65;;;17.30;99.90;;;;;;5055494;28;20041;-72
2023/08/18 01:05:41;;;;;;;6.00;1.58;;;17.30;99.90;;;;;;5053345;28;20098;-72
2023/08/18 01:08:07;;;;;;;2.75;1.70;;;17.30;99.90;;;;;;5045040;28;20037;-72
2023/08/18 01:10:48;;;;;;;1.90;1.50;;;17.10;99.90;;;;;;5055755;28;20120;-72
2023/08/18 01:13:24;;;;;;;2.08;1.60;;;17.20;99.90;;;;;;5055054;28;20059;-72
2023/08/18 01:15:53;;;;;;;4.32;2.33;;;17.40;99.90;;;;;;5076132;28;20114;-72
2023/08/18 01:18:19;;;;;;;2.97;1.85;;;17.10;99.90;;;;;;5062692;28;20053;-72
2023/08/18 01:20:45;;;;;;;3.42;2.25;;;17.20;99.90;;;;;;5061319;28;20082;-72
2023/08/18 01:23:11;;;;;;;2.80;2.00;;;17.20;99.90;;;;;;5059078;28;20040;-72
2023/08/18 01:25:37;;;;;;;2.75;1.80;;;17.30;99.90;;;;;;5055552;28;20037;-72
2023/08/18 01:28:03;;;;;;;2.72;2.03;;;17.20;99.90;;;;;;5047126;28;20088;-72
2023/08/18 01:30:41;;;;;;;2.78;1.98;;;17.10;99.90;;;;;;5053152;28;20431;-72
2023/08/18 01:33:13;;;;;;;6.18;2.58;;;17.10;99.90;;;;;;5075033;28;20033;-72
2023/08/18 01:35:42;;;;;;;3.72;2.05;;;17.10;99.90;;;;;;5049681;28;20114;-72
2023/08/18 01:38:09;;;;;;;3.28;2.45;;;17.20;99.90;;;;;;5057785;28;20055;-72
2023/08/18 01:40:36;;;;;;;4.28;2.28;;;17.00;99.90;;;;;;5054423;28;20029;-72
2023/08/18 01:43:03;;;;;;;4.38;2.30;;;17.20;99.90;;;;;;5056575;28;20094;-72
2023/08/18 01:45:29;;;;;;;4.55;2.88;;;17.20;99.90;;;;;;5056091;28;20576;-72
2023/08/18 01:47:55;;;;;;;4.32;2.60;;;17.10;99.90;;;;;;5058925;28;20120;-72
2023/08/18 01:50:20;;;;;;;4.78;2.30;;;17.10;99.90;;;;;;5047718;28;20044;-72
2023/08/18 01:52:46;;;;;;;9.98;3.08;;;16.90;99.90;;;;;;5069157;28;20131;-71
2023/08/18 01:55:12;;;;;;;6.28;3.05;;;16.90;99.90;;;;;;5055203;28;20048;-72
2023/08/18 01:57:37;;;;;;;4.35;2.83;;;17.20;99.90;;;;;;5061447;28;20068;-72
2023/08/18 02:00:03;;;;;;;6.63;3.03;;;17.00;99.90;;;;;;5056246;28;20040;-72
2023/08/18 02:02:29;;;;;;;5.15;3.15;;;17.10;99.90;;;;;;5079608;28;20040;-72
2023/08/18 02:04:56;;;;;;;3.45;2.65;;;17.00;99.90;;;;;;5053442;28;20510;-72
2023/08/18 02:07:22;;;;;;;3.15;2.75;;;17.00;99.90;;;;;;5055862;28;20044;-72
2023/08/18 02:09:47;;;;;;;5.75;2.78;;;16.90;99.90;;;;;;5043897;28;20038;-72
2023/08/18 02:12:13;;;;;;;4.75;2.83;;;17.20;99.90;;;;;;5056532;28;20496;-72
2023/08/18 02:14:38;;;;;;;6.47;3.10;;;16.90;99.90;;;;;;5055012;28;20417;-72
2023/08/18 02:17:04;;;;;;;3.65;2.85;;;17.00;99.90;;;;;;5057061;28;20044;-72
2023/08/18 02:19:29;;;;;;;4.57;3.00;;;17.00;99.90;;;;;;5050324;28;20044;-72
2023/08/18 02:21:55;;;;;;;4.47;2.75;;;17.20;99.90;;;;;;5075958;28;20639;-72
2023/08/18 02:24:21;;;;;;;4.80;2.75;;;17.10;99.90;;;;;;5049166;28;20118;-72
2023/08/18 02:26:46;;;;;;;4.03;2.92;;;17.20;99.90;;;;;;5054101;28;20431;-72
2023/08/18 02:29:12;;;;;;;7.85;3.40;;;17.20;99.90;;;;;;5048974;28;20068;-72
2023/08/18 02:31:37;;;;;;;5.07;3.22;;;17.00;99.90;;;;;;5059836;28;20040;-72
2023/08/18 02:34:03;;;;;;;5.45;3.35;;;17.00;99.90;;;;;;5055776;28;20036;-72
2023/08/18 02:36:29;;;;;;;6.93;3.38;;;17.10;99.90;;;;;;5066857;28;20033;-72
2023/08/18 02:38:54;;;;;;;4.70;3.30;;;17.20;99.90;;;;;;5051822;28;20427;-72
2023/08/18 02:41:20;;;;;;;5.57;3.10;;;17.20;99.90;;;;;;5054165;28;20083;-72
2023/08/18 02:43:48;;;;;;;6.00;4.50;;;16.90;99.90;;;;;;5045131;28;20112;-71
2023/08/18 02:46:14;;;;;;;4.30;3.28;;;17.20;99.90;;;;;;5055415;28;20132;-72
2023/08/18 02:48:40;;;;;;;7.65;3.63;;;17.10;99.90;;;;;;5071268;28;20121;-72
2023/08/18 02:51:09;;;;;;;5.18;3.40;;;17.20;99.90;;;;;;5055478;28;20492;-72
2023/08/18 02:53:37;;;;;;;7.53;3.88;;;17.10;99.90;;;;;;5060006;28;20037;-72
2023/08/18 02:56:03;;;;;;;5.07;4.00;;;17.20;99.90;;;;;;5069785;28;20115;-72
2023/08/18 02:58:30;;;;;;;6.40;3.25;;;16.90;99.90;;;;;;5045916;28;20125;-72
2023/08/18 03:01:00;;;;;;;5.57;3.90;;;17.10;99.90;;;;;;5054101;28;20416;-72
2023/08/18 03:03:25;;;;;;;5.43;3.38;;;17.00;99.90;;;;;;5050114;28;20056;-72
2023/08/18 03:05:51;;;;;;;6.28;3.60;;;17.10;99.90;;;;;;5056466;28;20039;-72
2023/08/18 03:08:17;;;;;;;5.78;4.10;;;17.10;99.90;;;;;;5060635;28;20041;-72
2023/08/18 03:10:42;;;;;;;6.70;3.30;;;17.10;99.90;;;;;;5054995;28;20041;-72
2023/08/18 03:13:08;;;;;;;6.25;4.03;;;16.90;99.90;;;;;;5063361;28;20037;-72
2023/08/18 03:15:40;;;;;;;6.00;4.07;;;17.10;99.90;;;;;;5054435;28;20049;-72
2023/08/18 03:18:05;;;;;;;6.20;4.18;;;17.10;99.90;;;;;;5053501;28;20044;-72
2023/08/18 03:20:31;;;;;;;6.88;4.25;;;17.00;99.90;;;;;;5056967;28;20040;-72
2023/08/18 03:22:56;;;;;;;8.20;4.65;;;17.20;99.90;;;;;;5056011;28;20037;-72
2023/08/18 03:25:22;;;;;;;6.03;4.47;;;17.00;99.90;;;;;;5058272;28;20094;-72
2023/08/18 03:27:48;;;;;;;7.20;4.47;;;17.10;99.90;;;;;;5070162;28;20048;-72
2023/08/18 03:30:13;;;;;;;6.55;4.20;;;17.00;99.90;;;;;;5056111;28;20076;-72
2023/08/18 03:32:39;;;;;;;8.77;4.90;;;16.90;99.90;;;;;;5063953;28;20036;-72
2023/08/18 03:35:05;;;;;;;6.95;4.55;;;17.20;99.90;;;;;;5058251;28;20124;-72
2023/08/18 03:37:31;;;;;;;5.97;4.45;;;17.20;99.90;;;;;;5053362;28;20080;-72
2023/08/18 03:39:56;;;;;;;7.93;4.57;;;16.90;99.90;;;;;;5046403;28;20440;-73
2023/08/18 03:42:22;;;;;;;9.20;4.63;;;17.00;99.90;;;;;;5060934;28;20068;-72
2023/08/18 03:44:48;;;;;;;8.23;4.60;;;16.90;99.90;;;;;;5047365;28;20078;-72
2023/08/18 03:47:13;;;;;;;6.90;5.20;;;17.00;99.90;;;;;;5053890;28;20401;-72
2023/08/18 03:49:39;;;;;;;5.13;4.47;;;17.20;99.90;;;;;;5055662;28;20055;-72
2023/08/18 03:52:05;;;;;;;4.93;4.13;;;17.00;99.90;;;;;;5060001;28;20070;-72
2023/08/18 03:54:31;;;;;;;7.00;4.40;;;17.10;99.90;;;;;;5041732;28;20051;-72
2023/08/18 03:56:56;;;;;;;6.18;4.55;;;17.00;99.90;;;;;;5047220;28;20045;-72
2023/08/18 03:59:22;;;;;;;8.25;5.32;;;17.20;99.90;;;;;;5050043;28;20056;-72
2023/08/18 04:01:48;;;;;;;8.77;4.45;;;16.90;99.90;;;;;;5050344;28;20029;-72
2023/08/18 04:04:13;;;;;;;6.97;4.80;;;17.20;99.90;;;;;;5055037;28;20492;-72
2023/08/18 04:06:39;;;;;;;5.60;4.57;;;17.10;99.90;;;;;;5052667;28;20041;-72
2023/08/18 04:09:15;;;;;;;5.65;4.00;;;17.10;99.90;;;;;;5047322;28;20033;-72
2023/08/18 04:11:42;;;;;;;8.23;4.57;;;16.90;99.90;;;;;;5059142;28;20046;-72
2023/08/18 04:14:08;;;;;;;8.63;5.22;;;17.20;99.90;;;;;;5052422;28;20067;-72
2023/08/18 04:16:34;;;;;;;9.60;4.95;;;17.10;99.90;;;;;;5073816;28;20065;-72
2023/08/18 04:19:03;;;;;;;6.78;4.32;;;16.90;99.90;;;;;;5052558;28;20044;-72
2023/08/18 04:21:29;;;;;;;7.25;4.10;;;17.00;99.90;;;;;;5032629;28;20044;-72
2023/08/18 04:23:55;;;;;;;8.68;4.55;;;17.00;99.90;;;;;;5074512;28;20051;-72
2023/08/18 04:26:21;;;;;;;9.18;5.28;;;17.20;99.90;;;;;;5057050;28;20037;-72
2023/08/18 04:28:47;;;;;;;8.43;5.82;;;17.30;99.90;;;;;;5057694;28;20124;-72
2023/08/18 04:31:12;;;;;;;6.13;4.43;;;17.10;99.90;;;;;;5056892;28;20044;-72
2023/08/18 04:33:38;;;;;;;8.30;4.75;;;17.00;99.90;;;;;;5062122;28;20183;-72
2023/08/18 04:36:04;;;;;;;7.63;4.28;;;17.30;99.90;;;;;;5052259;28;20041;-72
2023/08/18 04:38:30;;;;;;;8.45;4.32;;;17.30;99.90;;;;;;5080946;22;20055;-71
2023/08/18 04:41:01;;;;;;;6.50;4.22;;;16.90;99.90;;;;;;5066116;28;20043;-71
2023/08/18 04:43:27;;;;;;;6.63;4.28;;;17.10;99.90;;;;;;5069409;28;20166;-71
2023/08/18 04:45:53;;;;;;;8.32;5.18;;;17.10;99.90;;;;;;5069054;28;20040;-71
2023/08/18 04:48:19;;;;;;;6.03;4.72;;;17.00;99.90;;;;;;5068552;28;20044;-71
2023/08/18 04:50:45;;;;;;;6.72;4.40;;;17.10;99.90;;;;;;5072033;28;20072;-71
2023/08/18 04:53:10;;;;;;;8.48;4.82;;;17.40;99.90;;;;;;5068995;28;20068;-70
2023/08/18 04:55:36;;;;;;;7.82;4.30;;;17.00;99.90;;;;;;5069538;28;20213;-71
2023/08/18 04:58:02;;;;;;;8.25;4.78;;;17.20;99.90;;;;;;5069838;28;20028;-71
2023/08/18 05:00:29;;;;;;;8.38;4.85;;;17.20;99.90;;;;;;5050241;28;20401;-71
2023/08/18 05:02:55;;;;;;;8.98;4.43;;;17.30;99.90;;;;;;5038860;28;20115;-71
2023/08/18 05:05:21;;;;;;;10.00;4.50;;;17.10;99.90;;;;;;5070449;28;20511;-70
2023/08/18 05:07:46;;;;;;;9.68;4.32;;;17.30;99.90;;;;;;5064937;28;20032;-71
2023/08/18 05:10:12;;;;;;;6.45;4.38;;;17.10;99.90;;;;;;5073823;28;20573;-71
2023/08/18 05:12:38;;;;;;;11.57;4.85;;;17.00;99.90;;;;;;5068008;28;20047;-70
2023/08/18 05:15:04;;;;;;;7.95;4.18;;;17.00;99.90;;;;;;5070475;28;20040;-71
2023/08/18 05:17:29;;;;;;;6.78;3.60;;;17.00;99.90;;;;;;5054776;28;20044;-70
2023/08/18 05:19:55;;;;;;;7.30;4.18;;;17.00;99.90;;;;;;5072545;28;20039;-71
2023/08/18 05:22:22;;;;;;;5.95;4.47;;;17.40;99.90;;;;;;5069499;28;20099;-71
2023/08/18 05:24:48;;;;;;;9.05;4.65;;;17.30;99.90;;;;;;5070532;28;20043;-71
2023/08/18 05:27:14;;;;;;;5.68;4.25;;;17.40;99.90;;;;;;5063949;28;20040;-71
2023/08/18 05:29:40;;;;;;;8.20;4.35;;;17.40;99.90;;;;;;5072951;28;20052;-71
2023/08/18 05:32:06;;;;;;;6.40;4.35;;;17.00;99.90;;;;;;5063287;28;20033;-71
2023/08/18 05:34:31;;;;;;;6.35;4.97;;;17.00;99.90;;;;;;5065465;28;20041;-70
2023/08/18 05:36:57;;;;;;;7.45;4.95;;;17.40;99.90;;;;;;5064121;28;20135;-71
2023/08/18 05:39:22;;;;;;;7.05;4.88;;;17.30;99.90;;;;;;5067317;28;20416;-71
2023/08/18 05:41:48;;;;;;;6.53;4.68;;;17.00;99.90;;;;;;5065406;28;20112;-71
2023/08/18 05:44:13;;;;;;;11.93;4.68;;;17.10;99.90;;;;;;5072396;28;20185;-71
2023/08/18 05:46:39;;;;;;;11.52;4.72;;;17.50;99.90;;;;;;5063533;28;20039;-71
2023/08/18 05:49:05;;;;;;;8.02;5.18;;;17.40;99.90;;;;;;5071666;28;20035;-71
2023/08/18 05:51:30;;;;;;;6.68;4.60;;;17.30;99.90;;;;;;5071313;28;20159;-71
2023/08/18 05:53:56;;;;;;;5.82;4.68;;;17.10;99.90;;;;;;5071958;28;20040;-70
2023/08/18 05:56:21;;;;;;;6.72;4.30;;;17.00;99.90;;;;;;5067542;28;20082;-71
2023/08/18 05:58:47;;;;;;;10.25;4.90;;;17.10;99.90;;;;;;5070366;28;20036;-71
2023/08/18 06:01:14;;;;;;;6.07;4.35;;;17.00;99.90;;;;;;5068094;28;20040;-71
2023/08/18 06:03:40;;;;;;;7.53;4.43;;;17.20;99.90;;;;;;5069882;28;20048;-70
2023/08/18 06:06:09;;;;;;;10.55;4.25;;;17.10;99.90;;;;;;5061466;28;20650;-72
2023/08/18 06:08:34;;;;;;;9.38;4.90;;;17.30;99.90;;;;;;5069891;28;20033;-71
2023/08/18 06:11:00;;;;;;;7.68;4.72;;;17.60;99.90;;;;;;5067896;28;20041;-71
2023/08/18 06:13:26;;;;;;;8.02;4.68;;;17.10;99.90;;;;;;5067913;28;20040;-70
2023/08/18 06:15:54;;;;;;;7.40;4.35;;;17.10;99.90;;;;;;5070385;28;20062;-71
2023/08/18 06:18:20;;;;;;;11.18;4.57;;;17.30;99.90;;;;;;5052771;28;20090;-71
2023/08/18 06:20:46;;;;;;;6.93;4.43;;;17.30;99.90;;;;;;5070995;28;20076;-71
2023/08/18 06:23:11;;;;;;;8.55;4.65;;;17.60;99.90;;;;;;5068595;28;20076;-71
2023/08/18 06:25:38;;;;;;;9.43;5.22;;;17.30;99.90;;;;;;5052187;28;20044;-71
2023/08/18 06:28:05;;;;;;;7.85;5.00;;;17.40;99.90;;;;;;5049838;28;20036;-71
2023/08/18 06:30:31;;;;;;;9.45;4.35;;;17.50;99.90;;;;;;5050835;28;20049;-71
2023/08/18 06:32:56;;;;;;;10.20;5.15;;;17.60;99.90;;;;;;5036942;28;20052;-71
2023/08/18 06:35:22;;;;;;;10.73;4.70;;;17.40;99.90;;;;;;5067846;28;20044;-70
2023/08/18 06:37:47;;;;;;;10.70;4.93;;;17.60;99.90;;;;;;5065226;28;20523;-70
2023/08/18 06:40:13;;;;;;;10.18;4.95;;;17.70;99.90;;;;;;5068830;28;20041;-70
2023/08/18 06:42:39;;;;;;;11.80;4.75;;;17.30;99.90;;;;;;5047469;28;20116;-69
2023/08/18 06:45:05;;;;;;;8.88;4.32;;;17.80;99.90;;;;;;5053091;28;20177;-70
2023/08/18 06:47:30;;;;;;;10.48;4.90;;;17.50;99.90;;;;;;5065353;28;20036;-70
2023/08/18 06:49:56;;;;;;;9.05;5.13;;;17.70;99.90;;;;;;5068349;28;20051;-70
2023/08/18 06:52:21;;;;;;;6.60;4.55;;;17.80;99.90;;;;;;5065128;28;20111;-70
2023/08/18 06:54:47;;;;;;;12.10;4.88;;;17.40;99.90;;;;;;5069571;28;20043;-70
2023/08/18 06:57:13;;;;;;;10.90;3.80;;;17.50;99.90;;;;;;5069095;28;20032;-69
2023/08/18 06:59:38;;;;;;;7.95;4.32;;;17.40;99.90;;;;;;5052102;28;20043;-71
2023/08/18 07:02:04;;;;;;;8.43;4.18;;;17.70;99.90;;;;;;5065152;28;20055;-70
2023/08/18 07:04:30;;;;;;;6.75;4.30;;;17.90;99.90;;;;;;5066117;28;20488;-70
2023/08/18 07:06:55;;;;;;;9.23;4.43;;;17.60;99.90;;;;;;5070031;28;20040;-70
2023/08/18 07:09:21;;;;;;;7.03;4.35;;;17.50;99.90;;;;;;5071564;28;20040;-70
2023/08/18 07:11:46;;;;;;;10.98;4.82;;;17.70;99.90;;;;;;5068534;28;20041;-70
2023/08/18 07:14:12;;;;;;;6.93;4.65;;;18.10;99.90;;;;;;5067241;28;20072;-70
2023/08/18 07:16:38;;;;;;;9.85;4.57;;;17.80;99.90;;;;;;5061413;28;20112;-70
2023/08/18 07:19:04;;;;;;;8.55;4.78;;;18.10;99.90;;;;;;5065152;28;20075;-70
2023/08/18 07:21:29;;;;;;;8.65;4.40;;;17.80;99.90;;;;;;5067770;28;20036;-70
2023/08/18 07:23:55;;;;;;;8.15;4.60;;;17.90;99.90;;;;;;5071642;28;20068;-70
2023/08/18 07:26:20;;;;;;;10.35;5.32;;;17.80;99.90;;;;;;5071604;28;20044;-70
2023/08/18 07:28:46;;;;;;;10.27;5.88;;;18.10;99.90;;;;;;5068607;28;20040;-70
2023/08/18 07:31:11;;;;;;;15.93;6.32;;;17.80;99.90;;;;;;5071679;28;20067;-70
2023/08/18 07:33:37;;;;;;;14.77;6.55;;;17.60;99.90;;;;;;5044243;28;20087;-70
2023/08/18 07:36:03;;;;;;;13.55;6.53;;;18.00;99.90;;;;;;5068467;28;20052;-70
2023/08/18 07:38:32;;;;;;;13.05;6.93;;;18.10;99.90;;;;;;5049859;28;20045;-70
2023/08/18 07:40:58;;;;;;;16.50;7.28;;;17.70;99.90;;;;;;5066797;28;20033;-70
2023/08/18 07:43:23;;;;;;;18.30;6.95;;;18.00;99.90;;;;;;5048200;28;20124;-70
2023/08/18 07:45:49;;;;;;;13.07;7.47;;;17.70;99.90;;;;;;5070602;28;20063;-70
2023/08/18 07:48:15;;;;;;;15.23;6.75;;;18.20;99.90;;;;;;5069074;28;20033;-70
2023/08/18 07:50:41;;;;;;;15.43;7.45;;;17.90;99.90;;;;;;5070627;28;20048;-70
2023/08/18 07:53:07;;;;;;;17.33;7.40;;;18.30;99.90;;;;;;5047309;28;20055;-70
2023/08/18 07:55:32;;;;;;;16.15;7.22;;;18.30;99.90;;;;;;5067384;28;20048;-70
2023/08/18 07:57:58;;;;;;;20.58;7.40;;;18.40;99.90;;;;;;5069341;28;20040;-70
2023/08/18 08:00:26;;;;;;;21.00;8.23;;;18.30;99.90;;;;;;5067639;28;20058;-70
2023/08/18 08:02:52;;;;;;;18.67;7.40;;;18.20;99.90;;;;;;5060677;28;20147;-70
2023/08/18 08:05:19;;;;;;;16.27;7.20;;;18.00;99.90;;;;;;5051357;28;20127;-70
2023/08/18 08:07:45;;;;;;;19.38;7.22;;;18.20;99.90;;;;;;5061218;28;20033;-70
2023/08/18 08:10:10;;;;;;;17.25;6.85;;;18.30;99.90;;;;;;5066609;28;20041;-70
2023/08/18 08:12:38;;;;;;;14.85;6.20;;;18.60;99.90;;;;;;5072807;28;20126;-70
2023/08/18 08:15:05;;;;;;;16.52;6.85;;;18.60;99.90;;;;;;5073701;28;20037;-70
2023/08/18 08:17:32;;;;;;;14.15;6.60;;;18.60;99.90;;;;;;5073502;28;20495;-70
2023/08/18 08:20:00;;;;;;;15.55;7.47;;;18.60;99.90;;;;;;5072948;28;20040;-70
2023/08/18 08:22:25;;;;;;;13.85;6.15;;;18.40;99.90;;;;;;5055836;28;20198;-70
2023/08/18 08:24:54;;;;;;;13.02;6.50;;;18.20;99.90;;;;;;5071625;28;20622;-70
2023/08/18 08:27:20;;;;;;;17.20;6.93;;;18.50;99.90;;;;;;5045964;28;20053;-70
2023/08/18 08:29:45;;;;;;;12.55;6.82;;;18.50;99.90;;;;;;5070654;28;20047;-70
2023/08/18 08:32:11;;;;;;;15.73;7.05;;;18.40;99.90;;;;;;5071723;28;20122;-71
2023/08/18 08:34:40;;;;;;;12.90;6.63;;;18.60;99.90;;;;;;5069307;28;20117;-70
2023/08/18 08:37:06;;;;;;;11.77;6.10;;;18.50;99.90;;;;;;5037689;28;1031479;-70
2023/08/18 08:39:31;;;;;;;13.38;6.05;;;18.60;99.90;;;;;;5072325;28;20053;-70
2023/08/18 08:41:57;;;;;;;12.30;7.90;;;18.70;99.90;;;;;;5071859;28;20036;-70
2023/08/18 08:44:23;;;;;;;13.77;7.25;;;18.80;99.90;;;;;;5054480;28;20043;-70
2023/08/18 08:46:49;;;;;;;12.02;6.07;;;18.60;99.90;;;;;;5056368;28;20415;-71
2023/08/18 08:49:16;;;;;;;9.00;6.18;;;18.80;99.90;;;;;;5073368;28;20028;-70
2023/08/18 08:51:44;;;;;;;11.85;6.63;;;19.00;99.90;;;;;;5074660;28;20036;-70
2023/08/18 08:54:13;;;;;;;12.75;5.85;;;18.70;99.90;;;;;;5074645;28;20040;-70
2023/08/18 08:56:41;;;;;;;8.82;5.75;;;19.00;99.90;;;;;;5071023;28;20500;-70
2023/08/18 08:59:08;;;;;;;8.30;6.38;;;19.00;99.90;;;;;;5073790;28;20048;-70
2023/08/18 09:01:35;;;;;;;7.93;6.22;;;19.00;99.90;;;;;;5074914;28;20041;-70
2023/08/18 09:04:03;;;;;;;8.85;5.97;;;19.20;99.90;;;;;;5051808;28;20037;-70
2023/08/18 09:06:29;;;;;;;11.63;6.47;;;18.90;99.90;;;;;;5056540;28;20040;-69
2023/08/18 09:08:56;;;;;;;9.43;6.75;;;19.20;99.90;;;;;;5069985;28;20063;-70
2023/08/18 09:11:41;;;;;;;9.48;5.97;;;19.10;99.90;;;;;;5070646;28;20040;-70
2023/08/18 09:14:08;;;;;;;8.70;6.00;;;19.10;99.90;;;;;;5048965;28;20411;-70
2023/08/18 09:16:34;;;;;;;8.48;6.50;;;19.40;99.90;;;;;;5074135;28;20032;-70
2023/08/18 09:19:01;;;;;;;9.27;6.55;;;19.00;99.90;;;;;;5070202;28;20029;-71
2023/08/18 09:21:27;;;;;;;12.18;7.53;;;19.30;99.90;;;;;;5055719;28;20127;-71
2023/08/18 09:23:56;;;;;;;7.50;6.80;;;19.30;99.90;;;;;;5068060;28;20112;-71
2023/08/18 09:26:22;;;;;;;10.55;6.95;;;19.60;99.90;;;;;;5056102;28;20561;-71
2023/08/18 09:28:48;;;;;;;13.93;6.57;;;19.20;99.90;;;;;;5046344;28;20063;-70
2023/08/18 09:31:14;;;;;;;11.50;6.38;;;19.80;99.90;;;;;;5073492;28;20037;-71
2023/08/18 09:33:39;;;;;;;7.40;6.13;;;19.60;99.90;;;;;;5071284;28;20097;-71
2023/08/18 09:36:05;;;;;;;7.45;5.93;;;20.00;99.90;;;;;;5073218;28;20045;-71
2023/08/18 09:38:43;;;;;;;12.00;7.00;;;19.80;99.90;;;;;;5050572;28;22012;-71
2023/08/18 09:41:12;;;;;;;11.10;6.80;;;20.10;99.90;;;;;;5069722;28;20056;-71
2023/08/18 09:43:39;;;;;;;7.25;6.50;;;19.80;99.90;;;;;;5067425;28;20037;-71
2023/08/18 09:46:06;;;;;;;8.95;6.70;;;20.00;99.90;;;;;;5065927;28;20040;-71
2023/08/18 09:48:44;;;;;;;9.80;7.30;;;20.20;99.90;;;;;;5033169;28;20037;-71
2023/08/18 09:51:12;;;;;;;31.27;7.38;;;20.10;99.90;;;;;;5067710;28;20087;-71
2023/08/18 09:53:44;;;;;;;9.93;7.68;;;20.40;99.90;;;;;;5054590;28;20519;-71
2023/08/18 09:56:13;;;;;;;11.43;7.78;;;20.20;99.90;;;;;;5049830;28;20036;-71
2023/08/18 09:59:00;;;;;;;10.82;7.20;;;20.30;99.90;;;;;;5052158;28;20052;-71
2023/08/18 10:01:30;;;;;;;11.88;8.07;;;20.20;99.90;;;;;;5065560;28;20041;-71
2023/08/18 10:03:58;;;;;;;10.73;7.00;;;20.40;99.90;;;;;;5073423;28;20078;-71
2023/08/18 10:06:25;;;;;;;15.10;8.48;;;20.80;99.90;;;;;;5064080;28;20491;-70
2023/08/18 10:08:53;;;;;;;10.80;7.70;;;20.60;99.90;;;;;;5067160;28;20044;-71
2023/08/18 10:11:19;;;;;;;12.35;8.63;;;20.80;99.90;;;;;;5067361;28;20040;-71
2023/08/18 10:13:45;;;;;;;9.43;6.72;;;20.70;99.90;;;;;;5072225;28;20435;-71
2023/08/18 10:16:11;;;;;;;11.15;7.00;;;20.70;99.90;;;;;;5068430;28;20590;-71
2023/08/18 10:18:37;;;;;;;10.68;6.95;;;20.60;99.90;;;;;;5064491;28;20029;-70
2023/08/18 10:21:03;;;;;;;10.95;6.55;;;21.10;99.90;;;;;;5067468;28;20063;-69
2023/08/18 10:23:31;;;;;;;11.20;6.93;;;21.00;99.90;;;;;;5070060;28;20037;-69
2023/08/18 10:25:57;;;;;;;10.82;6.55;;;21.20;99.90;;;;;;5062407;28;20032;-70
2023/08/18 10:28:27;;;;;;;9.35;7.40;;;21.40;99.90;;;;;;5068903;28;20440;-69
2023/08/18 10:31:03;;;;;;;9.02;7.00;;;21.20;99.90;;;;;;5066385;28;20056;-69
2023/08/18 10:33:46;;;;;;;12.25;7.43;;;21.10;99.90;;;;;;5067224;28;20504;-70
2023/08/18 10:36:25;;;;;;;11.85;7.28;;;21.20;99.90;;;;;;5045633;28;20076;-70
2023/08/18 10:38:53;;;;;;;12.10;6.85;;;21.30;99.90;;;;;;5066693;28;20412;-69
2023/08/18 10:41:25;;;;;;;10.85;6.47;;;21.20;99.90;;;;;;5067159;28;20438;-69
2023/08/18 10:43:56;;;;;;;9.30;6.82;;;21.50;99.90;;;;;;5048661;28;20120;-69
2023/08/18 10:46:33;;;;;;;11.32;7.35;;;21.30;99.90;;;;;;5046125;28;20500;-70
2023/08/18 10:48:59;;;;;;;12.00;7.18;;;21.40;99.90;;;;;;5069576;28;20036;-70
2023/08/18 10:51:25;;;;;;;12.35;7.45;;;21.60;99.90;;;;;;5068073;28;20052;-69
2023/08/18 10:53:51;;;;;;;9.35;7.07;;;21.60;99.90;;;;;;5048535;28;20447;-69
2023/08/18 10:56:16;;;;;;;8.40;6.80;;;22.00;99.90;;;;;;5047081;28;20484;-69
2023/08/18 10:58:42;;;;;;;7.22;6.35;;;22.00;99.90;;;;;;5065257;28;20064;-69
2023/08/18 11:01:11;;;;;;;8.23;6.43;;;22.10;99.90;;;;;;5067399;28;20036;-70
2023/08/18 11:03:41;;;;;;;9.88;7.00;;;21.80;99.90;;;;;;5051536;28;20033;-70
2023/08/18 11:06:06;;;;;;;12.55;7.35;;;22.00;99.90;;;;;;5069245;28;20044;-70
2023/08/18 11:08:32;;;;;;;9.98;6.63;;;21.90;99.90;;;;;;5067900;28;20404;-69
2023/08/18 11:10:58;;;;;;;10.93;6.32;;;21.80;99.90;;;;;;5047708;28;20489;-70
2023/08/18 11:13:28;;;;;;;9.18;7.07;;;22.00;99.90;;;;;;5067925;28;20080;-70
2023/08/18 11:15:56;;;;;;;10.88;7.93;;;22.10;99.90;;;;;;5065346;28;20036;-70
2023/08/18 11:18:22;;;;;;;14.65;7.50;;;22.20;99.90;;;;;;5068384;28;20040;-70
2023/08/18 11:20:50;;;;;;;11.48;6.78;;;22.10;99.90;;;;;;5062690;28;20041;-70
2023/08/18 11:23:15;;;;;;;10.05;7.97;;;22.10;99.90;;;;;;5069911;28;20124;-70
2023/08/18 11:25:41;;;;;;;8.80;7.22;;;22.30;99.90;;;;;;5050384;28;20115;-70
2023/08/18 11:28:08;;;;;;;12.05;7.05;;;22.40;99.90;;;;;;5069439;28;20071;-70
2023/08/18 11:30:34;;;;;;;8.45;7.40;;;22.20;99.90;;;;;;5050300;28;20032;-70
2023/08/18 11:33:00;;;;;;;10.10;7.63;;;22.40;99.90;;;;;;5067439;28;20403;-69
2023/08/18 11:35:26;;;;;;;8.85;7.95;;;22.60;99.90;;;;;;5050757;28;20047;-68
2023/08/18 11:37:52;;;;;;;10.48;7.63;;;22.70;99.90;;;;;;5066388;28;20040;-70
2023/08/18 11:40:21;;;;;;;8.48;7.35;;;22.50;99.90;;;;;;5063798;28;20474;-73
2023/08/18 11:42:49;;;;;;;11.82;8.63;;;22.80;99.90;;;;;;5043677;28;20037;-71
2023/08/18 11:45:16;;;;;;;11.65;8.25;;;22.90;99.90;;;;;;5068435;28;20613;-71
2023/08/18 11:47:43;;;;;;;13.98;8.00;;;22.50;99.90;;;;;;5071136;28;20446;-71
2023/08/18 11:50:09;;;;;;;11.02;8.50;;;22.40;99.90;;;;;;5053856;28;20052;-71
2023/08/18 11:52:46;;;;;;;12.48;9.20;;;22.70;99.90;;;;;;5053647;28;20089;-71
2023/08/18 11:55:12;;;;;;;12.52;8.43;;;22.50;99.90;;;;;;5071666;28;20048;-71
2023/08/18 11:57:41;;;;;;;11.13;7.53;;;22.70;99.90;;;;;;5052828;28;20044;-71
2023/08/18 12:00:13;;;;;;;10.43;7.95;;;22.50;99.90;;;;;;5071245;28;20083;-71
2023/08/18 12:02:43;;;;;;;11.87;9.07;;;22.30;99.90;;;;;;5071698;28;20135;-71
2023/08/18 12:05:30;;;;;;;10.40;8.40;;;22.60;99.90;;;;;;5071480;28;20305;-71
2023/08/18 12:07:57;;;;;;;13.45;9.63;;;22.40;99.90;;;;;;5070744;28;20730;-72
2023/08/18 12:10:23;;;;;;;14.18;9.23;;;22.50;99.90;;;;;;5071478;28;20033;-71
2023/08/18 12:12:56;;;;;;;11.98;9.27;;;22.50;99.90;;;;;;5053370;28;20510;-71
2023/08/18 12:15:25;;;;;;;13.57;9.80;;;22.40;99.90;;;;;;5071481;28;20460;-71
2023/08/18 12:17:51;;;;;;;12.10;9.52;;;22.50;99.90;;;;;;5070832;28;20048;-71
2023/08/18 12:20:20;;;;;;;15.15;10.27;;;22.50;99.90;;;;;;5071188;28;20042;-71
2023/08/18 12:22:50;;;;;;;15.23;10.73;;;22.80;99.90;;;;;;5071346;28;20083;-71
2023/08/18 12:25:17;;;;;;;14.18;10.05;;;22.50;99.90;;;;;;5071184;28;20503;-71
2023/08/18 12:27:47;;;;;;;15.10;9.10;;;22.70;99.90;;;;;;5052867;28;20032;-71
2023/08/18 12:30:14;;;;;;;12.93;9.45;;;22.80;99.90;;;;;;5053297;28;20515;-71
2023/08/18 12:32:41;;;;;;;12.50;10.23;;;23.20;99.90;;;;;;5071274;28;20059;-71
2023/08/18 12:35:07;;;;;;;16.55;9.57;;;23.30;99.90;;;;;;5053362;28;20468;-71
2023/08/18 12:37:33;;;;;;;13.45;9.25;;;23.30;99.90;;;;;;5070629;28;20044;-71
2023/08/18 12:39:59;;;;;;;15.68;11.73;;;23.70;99.90;;;;;;5070875;28;20033;-71
2023/08/18 12:42:24;;;;;;;12.75;10.00;;;23.50;99.90;;;;;;5070117;28;20047;-71